Aérodrome :
LOGIN :

S'inscrire | Disclaimer

   EN    FR    IT 

 










Légende :    VFR   VFR Marginal   IFR   IFR Intensif   IFR Très Intensif
Visi : 
Plafond : 
>= 8 km
>= 3000ft
5 à 8 km
1000 à 3000 ft
1500m à 5 km
500 à 1000 ft
800 à 1500m
200 à 500 ft
< 800m
< 200 ft
Symboles :   Orages  Brouillard  Fortes neiges  Fortes précipitations  Vent > 20 kt
SIGMETs :   Divers  Orages  Givrage  Turbulence  Onde Orograph.  Cendres Volcan.






- Altitude de l'aérodrome : 49 ft
- Code IATA : GLZ


EHGR - Gilze-Rijen Airbase

DERNIER METAR :
  • 240055Z AUTO 18004KT 150V230 1000 BR BKN000 OVC002 02/02 Q1025 RED

METARs EXPIRÉS :
  • 240051Z AUTO 16004KT 160V230 1000 BR NCD 02/02 Q1025 AMB
  • 240025Z AUTO 16003KT 080V160 1300 BR OVC001 02/02 Q1026 RED
  • 240005Z AUTO VRB02KT 1400 BR OVC001 02/02 Q1026 RED
  • 232355Z AUTO 17004KT 140V210 1600 BR OVC001 02/02 Q1026 RED
  • 232325Z AUTO 14004KT 110V190 2100 BR OVC002 02/02 Q1026 AMB
  • 232255Z AUTO 12004KT 2300 BR OVC003 02/02 Q1026 YLO
  • 232225Z AUTO 10006KT 080V140 2600 BR OVC003 03/02 Q1026 YLO

TAF TAF EHGR
Valide du 23 à 18h jusqu'au 24 à 06h UTC


231738Z 2318/2406 09005KT 9000 BKN011
BECMG 2318/2320 VRB02KT 4500 BR BKN005
PROB30
TEMPO 2320/2402 2000 BR BKN003
BECMG 2402/2405 0800 FG



MET'MAP, la Météo Aéronautique d'un coup d'oeil ! - Copyright ORBIFLY Décembre 2007 - Disclaimer

ORBIFLY MET'MAP TEAM :

Programmation & Développement : Alexandra Zaïnal
Sur une idée originale de : Baudouin d'Aumeries
Assistance à la programmation : Marc-Olivier Méhu
Soutien technique & logistique : Manuel Goepfert

Contact : metmap@orbifly.com




SOURCES & CREDITS :

   NOAA